sensor_id;sensor_type;location;lat;lon;timestamp;temperature;humidity
46890;DHT22;32625;51.080;16.970;2022-09-06T00:01:13;15.80;88.00
46890;DHT22;32625;51.080;16.970;2022-09-06T00:03:40;15.80;86.90
46890;DHT22;32625;51.080;16.970;2022-09-06T00:06:10;15.80;86.60
46890;DHT22;32625;51.080;16.970;2022-09-06T00:08:38;15.70;86.50
46890;DHT22;32625;51.080;16.970;2022-09-06T00:11:06;15.70;86.60
46890;DHT22;32625;51.080;16.970;2022-09-06T00:13:33;15.70;87.20
46890;DHT22;32625;51.080;16.970;2022-09-06T00:16:12;15.70;86.60
46890;DHT22;32625;51.080;16.970;2022-09-06T00:18:40;15.70;86.90
46890;DHT22;32625;51.080;16.970;2022-09-06T00:21:18;15.60;85.40
46890;DHT22;32625;51.080;16.970;2022-09-06T00:23:46;15.60;87.70
46890;DHT22;32625;51.080;16.970;2022-09-06T00:26:13;15.70;87.40
46890;DHT22;32625;51.080;16.970;2022-09-06T00:28:40;15.60;86.90
46890;DHT22;32625;51.080;16.970;2022-09-06T00:31:16;15.60;86.70
46890;DHT22;32625;51.080;16.970;2022-09-06T00:33:44;15.60;87.30
46890;DHT22;32625;51.080;16.970;2022-09-06T00:36:11;15.60;87.20
46890;DHT22;32625;51.080;16.970;2022-09-06T00:38:40;15.60;88.00
46890;DHT22;32625;51.080;16.970;2022-09-06T00:41:09;15.60;88.10
46890;DHT22;32625;51.080;16.970;2022-09-06T00:43:36;15.50;88.40
46890;DHT22;32625;51.080;16.970;2022-09-06T00:46:06;15.50;87.70
46890;DHT22;32625;51.080;16.970;2022-09-06T00:48:34;15.60;87.10
46890;DHT22;32625;51.080;16.970;2022-09-06T00:51:06;15.60;88.50
46890;DHT22;32625;51.080;16.970;2022-09-06T00:53:34;15.50;87.50
46890;DHT22;32625;51.080;16.970;2022-09-06T00:56:01;15.50;88.00
46890;DHT22;32625;51.080;16.970;2022-09-06T00:58:28;15.50;87.20
46890;DHT22;32625;51.080;16.970;2022-09-06T01:00:56;15.50;87.80
46890;DHT22;32625;51.080;16.970;2022-09-06T01:03:24;15.40;88.10
46890;DHT22;32625;51.080;16.970;2022-09-06T01:11:09;15.20;88.60
46890;DHT22;32625;51.080;16.970;2022-09-06T01:36:55;14.80;90.40
46890;DHT22;32625;51.080;16.970;2022-09-06T01:39:40;14.80;90.90
46890;DHT22;32625;51.080;16.970;2022-09-06T01:42:18;14.70;90.70
46890;DHT22;32625;51.080;16.970;2022-09-06T01:44:51;14.70;90.30
46890;DHT22;32625;51.080;16.970;2022-09-06T01:47:57;14.70;90.70
46890;DHT22;32625;51.080;16.970;2022-09-06T01:55:38;14.70;90.70
46890;DHT22;32625;51.080;16.970;2022-09-06T02:01:19;14.60;90.90
46890;DHT22;32625;51.080;16.970;2022-09-06T02:03:51;14.60;90.90
46890;DHT22;32625;51.080;16.970;2022-09-06T02:06:25;14.50;91.20
46890;DHT22;32625;51.080;16.970;2022-09-06T02:09:08;14.50;91.10
46890;DHT22;32625;51.080;16.970;2022-09-06T02:11:39;14.50;91.60
46890;DHT22;32625;51.080;16.970;2022-09-06T02:14:12;14.40;91.00
46890;DHT22;32625;51.080;16.970;2022-09-06T02:16:42;14.30;91.40
46890;DHT22;32625;51.080;16.970;2022-09-06T02:19:19;14.30;91.70
46890;DHT22;32625;51.080;16.970;2022-09-06T02:21:49;14.20;91.50
46890;DHT22;32625;51.080;16.970;2022-09-06T02:24:24;14.20;91.80
46890;DHT22;32625;51.080;16.970;2022-09-06T02:26:54;14.20;91.50
46890;DHT22;32625;51.080;16.970;2022-09-06T02:29:21;14.20;91.50
46890;DHT22;32625;51.080;16.970;2022-09-06T02:32:13;14.20;92.00
46890;DHT22;32625;51.080;16.970;2022-09-06T02:34:39;14.20;91.70
46890;DHT22;32625;51.080;16.970;2022-09-06T02:37:09;14.10;92.00
46890;DHT22;32625;51.080;16.970;2022-09-06T02:39:37;14.10;92.40
46890;DHT22;32625;51.080;16.970;2022-09-06T02:42:06;14.00;92.60
46890;DHT22;32625;51.080;16.970;2022-09-06T02:44:35;13.90;92.40
46890;DHT22;32625;51.080;16.970;2022-09-06T02:47:02;14.00;92.80
46890;DHT22;32625;51.080;16.970;2022-09-06T02:49:30;14.00;92.50
46890;DHT22;32625;51.080;16.970;2022-09-06T02:51:57;14.00;92.90
46890;DHT22;32625;51.080;16.970;2022-09-06T02:54:24;13.80;92.90
46890;DHT22;32625;51.080;16.970;2022-09-06T02:56:51;13.90;93.10
46890;DHT22;32625;51.080;16.970;2022-09-06T02:59:18;13.70;93.00
46890;DHT22;32625;51.080;16.970;2022-09-06T03:01:45;13.80;93.30
46890;DHT22;32625;51.080;16.970;2022-09-06T03:04:12;13.80;93.10
46890;DHT22;32625;51.080;16.970;2022-09-06T03:06:40;13.80;92.70
46890;DHT22;32625;51.080;16.970;2022-09-06T03:09:07;13.90;92.70
46890;DHT22;32625;51.080;16.970;2022-09-06T03:11:36;13.80;93.20
46890;DHT22;32625;51.080;16.970;2022-09-06T03:14:04;13.80;93.60
46890;DHT22;32625;51.080;16.970;2022-09-06T03:16:31;13.80;94.00
46890;DHT22;32625;51.080;16.970;2022-09-06T03:18:58;13.70;94.30
46890;DHT22;32625;51.080;16.970;2022-09-06T03:21:25;13.80;94.00
46890;DHT22;32625;51.080;16.970;2022-09-06T03:23:52;13.80;93.60
46890;DHT22;32625;51.080;16.970;2022-09-06T03:26:20;13.80;93.50
46890;DHT22;32625;51.080;16.970;2022-09-06T03:28:47;13.80;93.80
46890;DHT22;32625;51.080;16.970;2022-09-06T03:31:16;13.80;94.00
46890;DHT22;32625;51.080;16.970;2022-09-06T03:33:43;13.80;93.30
46890;DHT22;32625;51.080;16.970;2022-09-06T03:36:10;13.80;93.70
46890;DHT22;32625;51.080;16.970;2022-09-06T03:38:37;13.80;93.70
46890;DHT22;32625;51.080;16.970;2022-09-06T03:41:04;13.90;93.60
46890;DHT22;32625;51.080;16.970;2022-09-06T03:43:32;13.90;93.30
46890;DHT22;32625;51.080;16.970;2022-09-06T03:45:59;13.90;93.70
46890;DHT22;32625;51.080;16.970;2022-09-06T03:48:28;13.90;93.40
46890;DHT22;32625;51.080;16.970;2022-09-06T03:50:56;13.80;93.70
46890;DHT22;32625;51.080;16.970;2022-09-06T03:53:25;13.80;93.80
46890;DHT22;32625;51.080;16.970;2022-09-06T03:55:54;13.90;94.00
46890;DHT22;32625;51.080;16.970;2022-09-06T03:58:23;13.90;94.00
46890;DHT22;32625;51.080;16.970;2022-09-06T04:00:59;13.90;94.10
46890;DHT22;32625;51.080;16.970;2022-09-06T04:03:27;13.90;93.70
46890;DHT22;32625;51.080;16.970;2022-09-06T04:05:54;13.90;93.70
46890;DHT22;32625;51.080;16.970;2022-09-06T04:08:21;13.90;93.20
46890;DHT22;32625;51.080;16.970;2022-09-06T04:10:51;14.00;93.50
46890;DHT22;32625;51.080;16.970;2022-09-06T04:13:19;14.00;93.00
46890;DHT22;32625;51.080;16.970;2022-09-06T04:15:47;14.00;92.80
46890;DHT22;32625;51.080;16.970;2022-09-06T04:18:14;14.00;92.80
46890;DHT22;32625;51.080;16.970;2022-09-06T04:20:42;14.10;92.80
46890;DHT22;32625;51.080;16.970;2022-09-06T04:23:11;14.10;92.60
46890;DHT22;32625;51.080;16.970;2022-09-06T04:25:38;14.10;92.70
46890;DHT22;32625;51.080;16.970;2022-09-06T04:28:05;14.10;92.70
46890;DHT22;32625;51.080;16.970;2022-09-06T04:30:32;14.10;91.90
46890;DHT22;32625;51.080;16.970;2022-09-06T04:32:59;14.10;92.50
46890;DHT22;32625;51.080;16.970;2022-09-06T04:35:26;14.10;92.50
46890;DHT22;32625;51.080;16.970;2022-09-06T04:37:53;14.10;92.10
46890;DHT22;32625;51.080;16.970;2022-09-06T04:40:21;14.10;92.60
46890;DHT22;32625;51.080;16.970;2022-09-06T04:42:48;14.20;92.80
46890;DHT22;32625;51.080;16.970;2022-09-06T04:45:15;14.20;92.20
46890;DHT22;32625;51.080;16.970;2022-09-06T04:47:42;14.20;92.50
46890;DHT22;32625;51.080;16.970;2022-09-06T04:50:09;14.20;92.40
46890;DHT22;32625;51.080;16.970;2022-09-06T04:52:37;14.20;92.30
46890;DHT22;32625;51.080;16.970;2022-09-06T04:55:04;14.20;93.00
46890;DHT22;32625;51.080;16.970;2022-09-06T04:57:31;14.20;92.80
46890;DHT22;32625;51.080;16.970;2022-09-06T04:59:58;14.20;92.80
46890;DHT22;32625;51.080;16.970;2022-09-06T05:02:26;14.20;92.70
46890;DHT22;32625;51.080;16.970;2022-09-06T05:04:53;14.30;92.30
46890;DHT22;32625;51.080;16.970;2022-09-06T05:07:21;14.20;92.40
46890;DHT22;32625;51.080;16.970;2022-09-06T05:09:48;14.20;92.50
46890;DHT22;32625;51.080;16.970;2022-09-06T05:12:15;14.20;92.70
46890;DHT22;32625;51.080;16.970;2022-09-06T05:14:42;14.20;93.10
46890;DHT22;32625;51.080;16.970;2022-09-06T05:17:09;14.20;92.50
46890;DHT22;32625;51.080;16.970;2022-09-06T05:19:36;14.20;91.70
46890;DHT22;32625;51.080;16.970;2022-09-06T05:22:03;14.20;93.10
46890;DHT22;32625;51.080;16.970;2022-09-06T05:24:30;14.20;92.80
46890;DHT22;32625;51.080;16.970;2022-09-06T05:26:58;14.20;92.80
46890;DHT22;32625;51.080;16.970;2022-09-06T05:29:30;14.30;93.10
46890;DHT22;32625;51.080;16.970;2022-09-06T05:31:57;14.20;92.00
46890;DHT22;32625;51.080;16.970;2022-09-06T05:34:24;14.20;92.60
46890;DHT22;32625;51.080;16.970;2022-09-06T05:36:51;14.20;92.50
46890;DHT22;32625;51.080;16.970;2022-09-06T05:39:19;14.20;92.50
46890;DHT22;32625;51.080;16.970;2022-09-06T05:41:47;14.30;93.00
46890;DHT22;32625;51.080;16.970;2022-09-06T05:44:14;14.30;93.60
46890;DHT22;32625;51.080;16.970;2022-09-06T05:46:45;14.40;93.50
46890;DHT22;32625;51.080;16.970;2022-09-06T05:49:14;14.40;93.30
46890;DHT22;32625;51.080;16.970;2022-09-06T05:51:42;14.40;93.90
46890;DHT22;32625;51.080;16.970;2022-09-06T05:54:12;14.40;93.40
46890;DHT22;32625;51.080;16.970;2022-09-06T05:56:39;14.40;92.50
46890;DHT22;32625;51.080;16.970;2022-09-06T05:59:06;14.40;92.90
46890;DHT22;32625;51.080;16.970;2022-09-06T06:01:33;14.40;92.40
46890;DHT22;32625;51.080;16.970;2022-09-06T06:04:02;14.40;92.90
46890;DHT22;32625;51.080;16.970;2022-09-06T06:06:32;14.50;93.40
46890;DHT22;32625;51.080;16.970;2022-09-06T06:08:59;14.50;93.30
46890;DHT22;32625;51.080;16.970;2022-09-06T06:11:27;14.50;92.90
46890;DHT22;32625;51.080;16.970;2022-09-06T06:13:54;14.50;93.50
46890;DHT22;32625;51.080;16.970;2022-09-06T06:16:21;14.50;93.50
46890;DHT22;32625;51.080;16.970;2022-09-06T06:18:49;14.60;93.20
46890;DHT22;32625;51.080;16.970;2022-09-06T06:21:22;14.60;93.30
46890;DHT22;32625;51.080;16.970;2022-09-06T06:24:01;14.60;93.70
46890;DHT22;32625;51.080;16.970;2022-09-06T06:26:31;14.70;93.30
46890;DHT22;32625;51.080;16.970;2022-09-06T06:28:59;14.60;93.40
46890;DHT22;32625;51.080;16.970;2022-09-06T06:31:29;14.60;93.50
46890;DHT22;32625;51.080;16.970;2022-09-06T06:33:57;14.60;94.00
46890;DHT22;32625;51.080;16.970;2022-09-06T06:36:25;14.60;94.20
46890;DHT22;32625;51.080;16.970;2022-09-06T06:38:53;14.60;95.00
46890;DHT22;32625;51.080;16.970;2022-09-06T06:41:23;14.60;95.60
46890;DHT22;32625;51.080;16.970;2022-09-06T06:43:55;14.60;95.30
46890;DHT22;32625;51.080;16.970;2022-09-06T06:46:25;14.60;94.90
46890;DHT22;32625;51.080;16.970;2022-09-06T06:48:53;14.50;95.80
46890;DHT22;32625;51.080;16.970;2022-09-06T06:51:24;14.50;96.10
46890;DHT22;32625;51.080;16.970;2022-09-06T06:53:51;14.60;96.60
46890;DHT22;32625;51.080;16.970;2022-09-06T06:56:20;14.60;96.20
46890;DHT22;32625;51.080;16.970;2022-09-06T06:58:50;14.60;96.10
46890;DHT22;32625;51.080;16.970;2022-09-06T07:01:19;14.50;95.70
46890;DHT22;32625;51.080;16.970;2022-09-06T07:03:47;14.60;96.00
46890;DHT22;32625;51.080;16.970;2022-09-06T07:06:16;14.60;97.70
46890;DHT22;32625;51.080;16.970;2022-09-06T07:08:44;14.50;99.30
46890;DHT22;32625;51.080;16.970;2022-09-06T07:11:12;14.50;99.60
46890;DHT22;32625;51.080;16.970;2022-09-06T07:13:40;14.50;99.90
46890;DHT22;32625;51.080;16.970;2022-09-06T07:16:23;14.50;99.90
46890;DHT22;32625;51.080;16.970;2022-09-06T07:18:52;14.50;99.90
46890;DHT22;32625;51.080;16.970;2022-09-06T07:21:23;14.40;99.90
46890;DHT22;32625;51.080;16.970;2022-09-06T07:24:08;14.50;99.90
46890;DHT22;32625;51.080;16.970;2022-09-06T07:26:37;14.40;99.90
46890;DHT22;32625;51.080;16.970;2022-09-06T07:29:06;14.50;99.90
46890;DHT22;32625;51.080;16.970;2022-09-06T07:31:36;14.50;99.90
46890;DHT22;32625;51.080;16.970;2022-09-06T07:34:23;14.50;99.90
46890;DHT22;32625;51.080;16.970;2022-09-06T07:36:54;14.50;99.90
46890;DHT22;32625;51.080;16.970;2022-09-06T07:39:22;14.40;99.90
46890;DHT22;32625;51.080;16.970;2022-09-06T07:41:49;14.50;99.90
46890;DHT22;32625;51.080;16.970;2022-09-06T07:44:16;14.50;99.90
46890;DHT22;32625;51.080;16.970;2022-09-06T07:46:44;14.50;99.90
46890;DHT22;32625;51.080;16.970;2022-09-06T07:49:11;14.50;99.90
46890;DHT22;32625;51.080;16.970;2022-09-06T07:51:38;14.60;99.90
46890;DHT22;32625;51.080;16.970;2022-09-06T07:54:05;14.70;99.90
46890;DHT22;32625;51.080;16.970;2022-09-06T07:56:53;14.60;99.90
46890;DHT22;32625;51.080;16.970;2022-09-06T07:59:20;14.70;99.90
46890;DHT22;32625;51.080;16.970;2022-09-06T08:01:47;14.80;99.90
46890;DHT22;32625;51.080;16.970;2022-09-06T08:04:15;14.80;99.90
46890;DHT22;32625;51.080;16.970;2022-09-06T08:06:45;14.90;99.90
46890;DHT22;32625;51.080;16.970;2022-09-06T08:09:34;14.90;99.90
46890;DHT22;32625;51.080;16.970;2022-09-06T08:12:02;14.90;99.90
46890;DHT22;32625;51.080;16.970;2022-09-06T08:14:33;15.00;99.90
46890;DHT22;32625;51.080;16.970;2022-09-06T08:17:01;15.00;99.90
46890;DHT22;32625;51.080;16.970;2022-09-06T08:19:28;15.00;99.90
46890;DHT22;32625;51.080;16.970;2022-09-06T08:21:56;15.10;99.90
46890;DHT22;32625;51.080;16.970;2022-09-06T08:24:23;15.10;99.90
46890;DHT22;32625;51.080;16.970;2022-09-06T08:26:50;15.20;99.90
46890;DHT22;32625;51.080;16.970;2022-09-06T08:29:17;15.20;99.90
46890;DHT22;32625;51.080;16.970;2022-09-06T08:31:46;15.20;99.90
46890;DHT22;32625;51.080;16.970;2022-09-06T08:34:13;15.20;99.90
46890;DHT22;32625;51.080;16.970;2022-09-06T08:36:41;15.20;99.90
46890;DHT22;32625;51.080;16.970;2022-09-06T08:39:09;15.30;99.90
46890;DHT22;32625;51.080;16.970;2022-09-06T08:44:14;15.30;99.90
46890;DHT22;32625;51.080;16.970;2022-09-06T08:47:10;15.30;99.90
46890;DHT22;32625;51.080;16.970;2022-09-06T08:49:44;15.40;99.90
46890;DHT22;32625;51.080;16.970;2022-09-06T08:52:40;15.40;99.90
46890;DHT22;32625;51.080;16.970;2022-09-06T08:55:39;15.60;99.90
46890;DHT22;32625;51.080;16.970;2022-09-06T08:58:23;15.70;99.90
46890;DHT22;32625;51.080;16.970;2022-09-06T09:01:13;15.80;99.90
46890;DHT22;32625;51.080;16.970;2022-09-06T09:03:43;16.00;99.90
46890;DHT22;32625;51.080;16.970;2022-09-06T09:06:11;16.00;99.90
46890;DHT22;32625;51.080;16.970;2022-09-06T09:11:22;16.30;99.90
46890;DHT22;32625;51.080;16.970;2022-09-06T09:16:30;16.40;99.90
46890;DHT22;32625;51.080;16.970;2022-09-06T09:19:02;16.50;99.90
46890;DHT22;32625;51.080;16.970;2022-09-06T09:21:38;16.60;99.90
46890;DHT22;32625;51.080;16.970;2022-09-06T09:24:10;16.70;99.90
46890;DHT22;32625;51.080;16.970;2022-09-06T09:26:53;16.80;98.30
46890;DHT22;32625;51.080;16.970;2022-09-06T09:29:22;16.90;99.00
46890;DHT22;32625;51.080;16.970;2022-09-06T09:31:55;17.00;98.40
46890;DHT22;32625;51.080;16.970;2022-09-06T09:34:27;17.00;98.10
46890;DHT22;32625;51.080;16.970;2022-09-06T09:40:31;17.10;98.90
46890;DHT22;32625;51.080;16.970;2022-09-06T09:43:23;17.00;99.40
46890;DHT22;32625;51.080;16.970;2022-09-06T09:48:35;17.00;99.90
46890;DHT22;32625;51.080;16.970;2022-09-06T09:51:19;17.00;99.90
46890;DHT22;32625;51.080;16.970;2022-09-06T09:53:58;17.10;99.90
46890;DHT22;32625;51.080;16.970;2022-09-06T09:56:49;17.10;99.90
46890;DHT22;32625;51.080;16.970;2022-09-06T09:59:22;17.10;99.90
46890;DHT22;32625;51.080;16.970;2022-09-06T10:01:57;17.20;99.90
46890;DHT22;32625;51.080;16.970;2022-09-06T10:04:36;17.40;99.90
46890;DHT22;32625;51.080;16.970;2022-09-06T10:07:20;17.50;99.70
46890;DHT22;32625;51.080;16.970;2022-09-06T10:10:00;17.60;97.10
46890;DHT22;32625;51.080;16.970;2022-09-06T10:12:35;17.80;96.40
46890;DHT22;32625;51.080;16.970;2022-09-06T10:15:05;17.90;96.20
46890;DHT22;32625;51.080;16.970;2022-09-06T10:17:36;18.10;97.00
46890;DHT22;32625;51.080;16.970;2022-09-06T10:20:12;18.10;96.70
46890;DHT22;32625;51.080;16.970;2022-09-06T10:25:45;18.40;97.30
46890;DHT22;32625;51.080;16.970;2022-09-06T10:28:32;18.50;97.00
46890;DHT22;32625;51.080;16.970;2022-09-06T10:36:44;18.60;96.90
46890;DHT22;32625;51.080;16.970;2022-09-06T10:47:47;18.60;95.30
46890;DHT22;32625;51.080;16.970;2022-09-06T10:50:19;18.50;96.80
46890;DHT22;32625;51.080;16.970;2022-09-06T10:52:47;18.50;96.50
46890;DHT22;32625;51.080;16.970;2022-09-06T10:55:18;18.50;95.80
46890;DHT22;32625;51.080;16.970;2022-09-06T10:57:50;18.60;96.10
46890;DHT22;32625;51.080;16.970;2022-09-06T11:00:45;18.70;95.40
46890;DHT22;32625;51.080;16.970;2022-09-06T11:03:26;18.80;95.90
46890;DHT22;32625;51.080;16.970;2022-09-06T11:06:14;18.80;95.00
46890;DHT22;32625;51.080;16.970;2022-09-06T11:08:46;18.80;94.50
46890;DHT22;32625;51.080;16.970;2022-09-06T11:11:26;18.80;95.00
46890;DHT22;32625;51.080;16.970;2022-09-06T11:13:55;18.90;95.40
46890;DHT22;32625;51.080;16.970;2022-09-06T11:16:27;19.00;95.40
46890;DHT22;32625;51.080;16.970;2022-09-06T11:19:05;19.10;94.70
46890;DHT22;32625;51.080;16.970;2022-09-06T11:22:02;19.00;95.10
46890;DHT22;32625;51.080;16.970;2022-09-06T11:27:22;18.80;94.20
46890;DHT22;32625;51.080;16.970;2022-09-06T11:29:54;18.80;94.90
46890;DHT22;32625;51.080;16.970;2022-09-06T11:35:29;18.80;96.20
46890;DHT22;32625;51.080;16.970;2022-09-06T11:38:04;18.80;92.70
46890;DHT22;32625;51.080;16.970;2022-09-06T11:40:37;18.90;92.60
46890;DHT22;32625;51.080;16.970;2022-09-06T11:43:13;18.90;90.90
46890;DHT22;32625;51.080;16.970;2022-09-06T11:45:50;19.00;92.00
46890;DHT22;32625;51.080;16.970;2022-09-06T11:53:29;19.00;92.20
46890;DHT22;32625;51.080;16.970;2022-09-06T12:06:40;19.20;92.60
46890;DHT22;32625;51.080;16.970;2022-09-06T12:09:27;19.10;92.60
46890;DHT22;32625;51.080;16.970;2022-09-06T12:11:56;19.10;92.60
46890;DHT22;32625;51.080;16.970;2022-09-06T12:14:39;19.10;92.30
46890;DHT22;32625;51.080;16.970;2022-09-06T12:19:57;19.00;93.70
46890;DHT22;32625;51.080;16.970;2022-09-06T12:25:19;19.10;92.20
46890;DHT22;32625;51.080;16.970;2022-09-06T12:28:04;19.10;93.50
46890;DHT22;32625;51.080;16.970;2022-09-06T12:30:43;19.10;93.20
46890;DHT22;32625;51.080;16.970;2022-09-06T12:33:36;19.10;92.20
46890;DHT22;32625;51.080;16.970;2022-09-06T12:38:39;19.20;92.60
46890;DHT22;32625;51.080;16.970;2022-09-06T12:41:13;19.30;90.50
46890;DHT22;32625;51.080;16.970;2022-09-06T12:43:40;19.30;91.30
46890;DHT22;32625;51.080;16.970;2022-09-06T12:46:08;19.40;92.40
46890;DHT22;32625;51.080;16.970;2022-09-06T12:48:35;19.50;91.60
46890;DHT22;32625;51.080;16.970;2022-09-06T12:51:17;19.50;91.90
46890;DHT22;32625;51.080;16.970;2022-09-06T12:53:55;19.60;91.00
46890;DHT22;32625;51.080;16.970;2022-09-06T12:56:24;19.60;91.30
46890;DHT22;32625;51.080;16.970;2022-09-06T12:59:02;19.60;90.40
46890;DHT22;32625;51.080;16.970;2022-09-06T13:01:35;19.60;90.60
46890;DHT22;32625;51.080;16.970;2022-09-06T13:04:12;19.60;91.30
46890;DHT22;32625;51.080;16.970;2022-09-06T13:06:43;19.60;91.80
46890;DHT22;32625;51.080;16.970;2022-09-06T13:09:14;19.60;91.60
46890;DHT22;32625;51.080;16.970;2022-09-06T13:11:47;19.60;91.80
46890;DHT22;32625;51.080;16.970;2022-09-06T13:14:20;19.50;92.10
46890;DHT22;32625;51.080;16.970;2022-09-06T13:16:51;19.50;93.00
46890;DHT22;32625;51.080;16.970;2022-09-06T13:19:39;19.50;92.90
46890;DHT22;32625;51.080;16.970;2022-09-06T13:22:09;19.50;91.80
46890;DHT22;32625;51.080;16.970;2022-09-06T13:24:44;19.60;91.40
46890;DHT22;32625;51.080;16.970;2022-09-06T13:27:33;19.70;91.20
46890;DHT22;32625;51.080;16.970;2022-09-06T13:30:08;19.80;90.40
46890;DHT22;32625;51.080;16.970;2022-09-06T13:32:45;19.90;90.00
46890;DHT22;32625;51.080;16.970;2022-09-06T13:35:22;19.90;90.60
46890;DHT22;32625;51.080;16.970;2022-09-06T13:37:50;19.90;90.70
46890;DHT22;32625;51.080;16.970;2022-09-06T13:40:55;20.00;90.10
46890;DHT22;32625;51.080;16.970;2022-09-06T13:43:44;20.10;90.60
46890;DHT22;32625;51.080;16.970;2022-09-06T13:46:11;20.10;90.10
46890;DHT22;32625;51.080;16.970;2022-09-06T13:48:39;20.20;88.50
46890;DHT22;32625;51.080;16.970;2022-09-06T13:51:08;20.30;86.30
46890;DHT22;32625;51.080;16.970;2022-09-06T13:53:35;20.30;86.10
46890;DHT22;32625;51.080;16.970;2022-09-06T13:56:03;20.30;88.40
46890;DHT22;32625;51.080;16.970;2022-09-06T13:58:30;20.30;87.90
46890;DHT22;32625;51.080;16.970;2022-09-06T14:00:58;20.30;87.20
46890;DHT22;32625;51.080;16.970;2022-09-06T14:03:30;20.20;88.00
46890;DHT22;32625;51.080;16.970;2022-09-06T14:05:58;20.20;89.60
46890;DHT22;32625;51.080;16.970;2022-09-06T14:08:28;20.30;88.10
46890;DHT22;32625;51.080;16.970;2022-09-06T14:11:19;20.30;89.50
46890;DHT22;32625;51.080;16.970;2022-09-06T14:13:46;20.30;90.00
46890;DHT22;32625;51.080;16.970;2022-09-06T14:16:14;20.20;90.40
46890;DHT22;32625;51.080;16.970;2022-09-06T14:18:41;20.10;90.50
46890;DHT22;32625;51.080;16.970;2022-09-06T14:21:08;20.00;90.60
46890;DHT22;32625;51.080;16.970;2022-09-06T14:23:35;19.90;91.30
46890;DHT22;32625;51.080;16.970;2022-09-06T14:26:03;19.90;92.00
46890;DHT22;32625;51.080;16.970;2022-09-06T14:28:31;19.90;91.80
46890;DHT22;32625;51.080;16.970;2022-09-06T14:31:15;20.00;91.30
46890;DHT22;32625;51.080;16.970;2022-09-06T14:33:43;20.00;89.40
46890;DHT22;32625;51.080;16.970;2022-09-06T14:36:16;19.90;90.00
46890;DHT22;32625;51.080;16.970;2022-09-06T14:38:45;19.90;91.10
46890;DHT22;32625;51.080;16.970;2022-09-06T14:41:14;19.80;90.30
46890;DHT22;32625;51.080;16.970;2022-09-06T14:43:42;19.70;91.40
46890;DHT22;32625;51.080;16.970;2022-09-06T14:46:12;19.70;90.70
46890;DHT22;32625;51.080;16.970;2022-09-06T14:48:41;19.70;90.50
46890;DHT22;32625;51.080;16.970;2022-09-06T14:51:14;19.70;90.30
46890;DHT22;32625;51.080;16.970;2022-09-06T14:53:45;19.70;88.30
46890;DHT22;32625;51.080;16.970;2022-09-06T14:56:13;19.70;86.50
46890;DHT22;32625;51.080;16.970;2022-09-06T14:58:40;19.60;90.00
46890;DHT22;32625;51.080;16.970;2022-09-06T15:01:11;19.60;89.50
46890;DHT22;32625;51.080;16.970;2022-09-06T15:03:48;19.60;90.80
46890;DHT22;32625;51.080;16.970;2022-09-06T15:06:21;19.60;92.20
46890;DHT22;32625;51.080;16.970;2022-09-06T15:08:48;19.60;92.20
46890;DHT22;32625;51.080;16.970;2022-09-06T15:11:37;19.70;90.40
46890;DHT22;32625;51.080;16.970;2022-09-06T15:14:09;19.50;90.90
46890;DHT22;32625;51.080;16.970;2022-09-06T15:16:38;19.60;91.20
46890;DHT22;32625;51.080;16.970;2022-09-06T15:19:05;19.50;91.70
46890;DHT22;32625;51.080;16.970;2022-09-06T15:21:33;19.40;91.40
46890;DHT22;32625;51.080;16.970;2022-09-06T15:24:01;19.30;93.30
46890;DHT22;32625;51.080;16.970;2022-09-06T15:26:29;19.30;94.60
46890;DHT22;32625;51.080;16.970;2022-09-06T15:28:56;19.20;94.60
46890;DHT22;32625;51.080;16.970;2022-09-06T15:31:23;19.20;92.70
46890;DHT22;32625;51.080;16.970;2022-09-06T15:33:51;19.20;91.70
46890;DHT22;32625;51.080;16.970;2022-09-06T15:36:19;19.20;92.40
46890;DHT22;32625;51.080;16.970;2022-09-06T15:38:48;19.10;92.70
46890;DHT22;32625;51.080;16.970;2022-09-06T15:41:18;19.20;92.50
46890;DHT22;32625;51.080;16.970;2022-09-06T15:43:47;19.10;93.70
46890;DHT22;32625;51.080;16.970;2022-09-06T15:46:17;19.10;92.70
46890;DHT22;32625;51.080;16.970;2022-09-06T15:48:48;19.10;93.40
46890;DHT22;32625;51.080;16.970;2022-09-06T15:51:17;19.00;92.60
46890;DHT22;32625;51.080;16.970;2022-09-06T15:53:46;19.00;92.30
46890;DHT22;32625;51.080;16.970;2022-09-06T15:56:15;19.00;92.20
46890;DHT22;32625;51.080;16.970;2022-09-06T15:58:44;19.00;92.50
46890;DHT22;32625;51.080;16.970;2022-09-06T16:01:17;18.90;91.80
46890;DHT22;32625;51.080;16.970;2022-09-06T16:03:49;18.90;92.60
46890;DHT22;32625;51.080;16.970;2022-09-06T16:06:20;18.80;94.20
46890;DHT22;32625;51.080;16.970;2022-09-06T16:08:52;18.70;94.80
46890;DHT22;32625;51.080;16.970;2022-09-06T16:11:21;18.70;96.40
46890;DHT22;32625;51.080;16.970;2022-09-06T16:13:48;18.60;99.90
46890;DHT22;32625;51.080;16.970;2022-09-06T16:16:16;18.50;99.90
46890;DHT22;32625;51.080;16.970;2022-09-06T16:18:44;18.40;99.90
46890;DHT22;32625;51.080;16.970;2022-09-06T16:21:23;18.00;99.90
46890;DHT22;32625;51.080;16.970;2022-09-06T16:23:53;17.60;99.90
46890;DHT22;32625;51.080;16.970;2022-09-06T16:26:22;17.40;99.90
46890;DHT22;32625;51.080;16.970;2022-09-06T16:28:50;17.40;99.90
46890;DHT22;32625;51.080;16.970;2022-09-06T16:31:19;17.40;99.90
46890;DHT22;32625;51.080;16.970;2022-09-06T16:33:46;17.40;99.90
46890;DHT22;32625;51.080;16.970;2022-09-06T16:36:15;17.40;99.90
46890;DHT22;32625;51.080;16.970;2022-09-06T16:38:43;17.50;99.90
46890;DHT22;32625;51.080;16.970;2022-09-06T16:41:20;17.60;99.90
46890;DHT22;32625;51.080;16.970;2022-09-06T16:43:47;17.60;99.90
46890;DHT22;32625;51.080;16.970;2022-09-06T16:46:22;17.60;99.90
46890;DHT22;32625;51.080;16.970;2022-09-06T16:48:51;17.60;99.90
46890;DHT22;32625;51.080;16.970;2022-09-06T16:51:20;17.70;99.90
46890;DHT22;32625;51.080;16.970;2022-09-06T16:53:48;17.70;99.90
46890;DHT22;32625;51.080;16.970;2022-09-06T16:56:18;17.70;99.90
46890;DHT22;32625;51.080;16.970;2022-09-06T16:58:53;17.70;99.90
46890;DHT22;32625;51.080;16.970;2022-09-06T17:01:21;17.70;99.90
46890;DHT22;32625;51.080;16.970;2022-09-06T17:03:49;17.70;99.90
46890;DHT22;32625;51.080;16.970;2022-09-06T17:06:17;17.60;99.90
46890;DHT22;32625;51.080;16.970;2022-09-06T17:08:44;17.60;99.90
46890;DHT22;32625;51.080;16.970;2022-09-06T17:11:14;17.70;99.90
46890;DHT22;32625;51.080;16.970;2022-09-06T17:13:42;17.60;99.90
46890;DHT22;32625;51.080;16.970;2022-09-06T17:16:10;17.60;99.90
46890;DHT22;32625;51.080;16.970;2022-09-06T17:18:58;17.60;99.90